Time;durP1;ratioP1;P1;durP2;ratioP2;P2;SDS_P1;SDS_P2;PMS_P1;PMS_P2;Temp;Humidity;BMP_temperature;BMP_pressure;BME280_temperature;BME280_humidity;BME280_pressure;Samples;Min_cycle;Max_cycle;Signal;HPM_P1;HPM_P2
2024/01/12 00:01:40;;;;;;;1999.90;999.90;;;2.30;99.90;;;;;;5032928;28;20875;-90
2024/01/12 00:04:06;;;;;;;1999.90;999.90;;;2.40;99.90;;;;;;5026357;28;20044;-90
2024/01/12 00:06:32;;;;;;;1999.90;999.90;;;2.40;99.90;;;;;;5022937;28;20051;-89
2024/01/12 00:08:58;;;;;;;1999.90;999.90;;;2.50;99.90;;;;;;5038709;28;20040;-90
2024/01/12 00:11:23;;;;;;;1999.90;999.90;;;2.50;99.90;;;;;;5019693;28;20033;-90
2024/01/12 00:13:49;;;;;;;1999.90;999.90;;;2.50;99.90;;;;;;5037273;28;20107;-90
2024/01/12 00:16:19;;;;;;;1999.90;999.90;;;2.50;99.90;;;;;;5038913;28;20033;-90
2024/01/12 00:18:44;;;;;;;1999.90;999.90;;;2.50;99.90;;;;;;5027860;28;20056;-90
2024/01/12 00:21:10;;;;;;;1999.90;999.90;;;2.50;99.90;;;;;;5043354;28;20057;-90
2024/01/12 00:23:35;;;;;;;1999.90;999.90;;;2.50;99.90;;;;;;5041788;28;20033;-90
2024/01/12 00:26:01;;;;;;;1999.90;999.90;;;2.50;99.90;;;;;;5017149;28;20489;-90
2024/01/12 00:28:27;;;;;;;1999.90;999.90;;;2.50;99.90;;;;;;5017382;28;20317;-90
2024/01/12 00:30:53;;;;;;;1999.90;999.90;;;2.50;99.90;;;;;;5034271;28;20635;-90
2024/01/12 00:33:20;;;;;;;1999.90;999.90;;;2.60;99.90;;;;;;5022852;28;20571;-90
2024/01/12 00:35:47;;;;;;;1999.90;999.90;;;2.50;99.90;;;;;;5012127;28;20049;-90
2024/01/12 00:38:13;;;;;;;1999.90;999.90;;;2.50;99.90;;;;;;5044920;28;20060;-90
2024/01/12 00:40:39;;;;;;;1999.90;999.90;;;2.50;99.90;;;;;;5045410;28;20045;-90
2024/01/12 00:43:04;;;;;;;1999.90;999.90;;;2.60;99.90;;;;;;5035279;28;20041;-90
2024/01/12 00:45:30;;;;;;;1999.90;999.90;;;2.60;99.90;;;;;;5019851;28;20226;-91
2024/01/12 00:47:56;;;;;;;1999.90;999.90;;;2.50;99.90;;;;;;5021639;28;20034;-91
2024/01/12 00:50:22;;;;;;;1999.90;999.90;;;2.60;99.90;;;;;;5041680;28;20111;-91
2024/01/12 00:52:47;;;;;;;1999.90;999.90;;;2.60;99.90;;;;;;5022933;28;20104;-90
2024/01/12 00:55:13;;;;;;;1999.90;999.90;;;2.70;99.90;;;;;;5034338;28;20124;-90
2024/01/12 00:57:39;;;;;;;1999.90;999.90;;;2.70;99.90;;;;;;5045575;28;20049;-91
2024/01/12 01:00:05;;;;;;;1999.90;999.90;;;2.80;99.90;;;;;;5042486;28;20433;-90
2024/01/12 01:02:31;;;;;;;1999.90;999.90;;;2.80;99.90;;;;;;5025258;28;20486;-91
2024/01/12 01:04:56;;;;;;;1999.90;999.90;;;2.80;99.90;;;;;;5031577;28;20047;-91
2024/01/12 01:07:22;;;;;;;1999.90;999.90;;;2.70;99.90;;;;;;5027415;28;20048;-91
2024/01/12 01:09:48;;;;;;;1999.90;999.90;;;2.70;99.90;;;;;;5025917;28;20159;-90
2024/01/12 01:12:14;;;;;;;1999.90;999.90;;;2.70;99.90;;;;;;5030969;28;20465;-90
2024/01/12 01:14:40;;;;;;;1999.90;999.90;;;2.70;99.90;;;;;;5021170;28;20124;-91
2024/01/12 01:17:06;;;;;;;1999.90;999.90;;;2.70;99.90;;;;;;5052120;28;20575;-91
2024/01/12 01:19:31;;;;;;;1999.90;999.90;;;2.60;99.90;;;;;;5024511;28;20107;-91
2024/01/12 01:21:57;;;;;;;1999.90;999.90;;;2.60;99.90;;;;;;5022280;28;20486;-90
2024/01/12 01:24:28;;;;;;;1999.90;999.90;;;2.50;99.90;;;;;;5028293;28;20045;-91
2024/01/12 01:26:55;;;;;;;1999.90;999.90;;;2.40;99.90;;;;;;5031662;28;20091;-90
2024/01/12 01:29:21;;;;;;;1999.90;999.90;;;2.40;99.90;;;;;;5045511;28;20464;-91
2024/01/12 01:31:47;;;;;;;1999.90;999.90;;;2.30;99.90;;;;;;5031378;28;20452;-90
2024/01/12 01:34:13;;;;;;;1999.90;999.90;;;2.30;99.90;;;;;;5047211;28;20067;-90
2024/01/12 01:36:39;;;;;;;1999.90;999.90;;;2.20;99.90;;;;;;5035092;28;20120;-91
2024/01/12 01:39:04;;;;;;;1999.90;999.90;;;2.10;99.90;;;;;;5032925;28;20056;-90
2024/01/12 01:41:30;;;;;;;1999.90;999.90;;;2.10;99.90;;;;;;5053960;28;20080;-90
2024/01/12 01:43:55;;;;;;;1999.90;999.90;;;2.00;99.90;;;;;;5045190;28;20138;-91
2024/01/12 01:46:22;;;;;;;1999.90;999.90;;;2.00;99.90;;;;;;5033281;28;20056;-90
2024/01/12 01:48:48;;;;;;;1999.90;999.90;;;2.00;99.90;;;;;;5048657;28;20064;-91
2024/01/12 01:51:13;;;;;;;1999.90;999.90;;;2.00;99.90;;;;;;5038670;28;20522;-91
2024/01/12 01:53:39;;;;;;;1999.90;999.90;;;2.00;99.90;;;;;;5045375;28;20451;-91
2024/01/12 01:56:05;;;;;;;1999.90;999.90;;;1.90;99.90;;;;;;5045748;28;20033;-91
2024/01/12 01:58:34;;;;;;;1999.90;999.90;;;2.00;99.90;;;;;;5047649;28;20186;-91
2024/01/12 02:01:00;;;;;;;1999.90;999.90;;;1.90;99.90;;;;;;5051540;28;20098;-91
2024/01/12 02:03:26;;;;;;;1999.90;999.90;;;1.80;99.90;;;;;;5031873;28;20060;-91
2024/01/12 02:05:54;;;;;;;1999.90;999.90;;;1.80;99.90;;;;;;5020543;28;20111;-91
2024/01/12 02:08:20;;;;;;;1999.90;999.90;;;1.80;99.90;;;;;;5042740;28;20040;-91
2024/01/12 02:10:46;;;;;;;1999.90;999.90;;;1.70;99.90;;;;;;5028083;28;20049;-91
2024/01/12 02:13:12;;;;;;;1999.90;999.90;;;1.70;99.90;;;;;;5054448;28;20045;-91
2024/01/12 02:15:38;;;;;;;19.95;16.13;;;1.70;99.90;;;;;;5030897;28;20523;-92
2024/01/12 02:18:03;;;;;;;19.70;16.90;;;1.70;99.90;;;;;;5032284;28;20033;-91
2024/01/12 02:20:29;;;;;;;19.67;16.38;;;1.70;99.90;;;;;;5038456;28;20128;-91
2024/01/12 02:22:55;;;;;;;21.35;16.65;;;1.70;99.90;;;;;;5026221;28;20037;-91
2024/01/12 02:25:20;;;;;;;17.98;15.98;;;1.70;99.90;;;;;;5040567;28;20048;-92
2024/01/12 02:27:47;;;;;;;20.08;17.50;;;1.70;99.90;;;;;;5034616;28;20106;-91
2024/01/12 02:30:13;;;;;;;20.95;17.20;;;1.70;99.90;;;;;;5048792;28;20378;-91
2024/01/12 02:32:38;;;;;;;22.75;17.98;;;1.70;99.90;;;;;;5040995;28;20052;-91
2024/01/12 02:35:04;;;;;;;20.02;18.20;;;1.70;99.90;;;;;;5023637;28;20417;-91
2024/01/12 02:37:30;;;;;;;21.23;17.80;;;1.70;99.90;;;;;;5037135;28;20490;-91
2024/01/12 02:39:56;;;;;;;18.85;16.92;;;1.70;99.90;;;;;;5042483;28;20048;-91
2024/01/12 02:42:21;;;;;;;19.80;17.88;;;1.70;99.90;;;;;;5037504;28;20033;-91
2024/01/12 02:44:47;;;;;;;18.40;16.63;;;1.70;99.90;;;;;;5024507;28;20090;-91
2024/01/12 02:47:13;;;;;;;18.73;17.02;;;1.70;99.90;;;;;;5049856;28;20038;-91
2024/01/12 02:49:39;;;;;;;21.35;16.35;;;1.70;99.90;;;;;;5052802;28;20045;-91
2024/01/12 02:52:04;;;;;;;19.45;17.42;;;1.60;99.90;;;;;;5037108;28;20071;-91
2024/01/12 02:54:31;;;;;;;18.88;16.70;;;1.60;99.90;;;;;;5028926;28;20040;-91
2024/01/12 02:56:57;;;;;;;21.25;17.13;;;1.50;99.90;;;;;;5024572;28;20055;-91
2024/01/12 02:59:23;;;;;;;20.63;16.63;;;1.40;99.90;;;;;;5025904;28;20041;-91
2024/01/12 03:01:48;;;;;;;20.05;16.70;;;1.30;99.90;;;;;;5027636;28;20438;-91
2024/01/12 03:04:14;;;;;;;18.73;16.33;;;1.20;99.90;;;;;;5029628;28;20128;-91
2024/01/12 03:06:40;;;;;;;22.13;16.52;;;1.10;99.90;;;;;;5034662;28;20567;-91
2024/01/12 03:09:05;;;;;;;20.17;16.85;;;1.00;99.90;;;;;;5051702;28;20520;-91
2024/01/12 03:11:31;;;;;;;20.35;16.92;;;1.00;99.90;;;;;;5029926;28;20041;-91
2024/01/12 03:13:57;;;;;;;19.58;17.48;;;1.00;99.90;;;;;;5025794;28;20036;-91
2024/01/12 03:16:22;;;;;;;22.25;17.58;;;1.00;99.90;;;;;;5022608;28;20113;-91
2024/01/12 03:18:49;;;;;;;23.70;18.90;;;1.00;99.90;;;;;;5039488;28;20044;-91
2024/01/12 03:21:16;;;;;;;22.08;17.15;;;0.90;99.90;;;;;;5045784;28;20037;-91
2024/01/12 03:23:42;;;;;;;19.48;17.48;;;1.00;99.90;;;;;;5027919;28;20049;-91
2024/01/12 03:26:08;;;;;;;22.35;17.25;;;1.00;99.90;;;;;;5050578;28;20032;-91
2024/01/12 03:28:36;;;;;;;22.80;19.20;;;1.00;99.90;;;;;;5020137;28;20149;-91
2024/01/12 03:31:03;;;;;;;20.95;17.70;;;1.00;99.90;;;;;;5022386;28;20037;-91
2024/01/12 03:33:29;;;;;;;21.13;18.02;;;1.00;99.90;;;;;;5037734;28;20125;-92
2024/01/12 03:35:55;;;;;;;20.15;17.98;;;1.00;99.90;;;;;;5042175;28;20053;-91
2024/01/12 03:38:21;;;;;;;18.95;16.80;;;1.10;99.90;;;;;;5028216;28;20114;-91
2024/01/12 03:40:46;;;;;;;20.08;18.02;;;1.10;99.90;;;;;;5039624;28;20041;-92
2024/01/12 03:43:12;;;;;;;21.90;17.50;;;1.10;99.90;;;;;;5046124;28;20083;-92
2024/01/12 03:45:38;;;;;;;19.75;17.45;;;1.20;99.90;;;;;;5044024;28;20048;-91
2024/01/12 03:48:04;;;;;;;20.05;18.00;;;1.20;99.90;;;;;;5040896;28;20067;-92
2024/01/12 03:50:29;;;;;;;19.42;17.52;;;1.20;99.90;;;;;;5044635;28;20052;-92
2024/01/12 03:52:55;;;;;;;19.88;17.75;;;1.20;99.90;;;;;;5032102;28;20116;-91
2024/01/12 03:55:21;;;;;;;20.02;17.83;;;1.20;99.90;;;;;;5039978;28;20033;-91
2024/01/12 03:57:46;;;;;;;21.98;19.45;;;1.30;99.90;;;;;;5048277;28;20045;-92
2024/01/12 04:00:12;;;;;;;18.92;17.05;;;1.40;99.90;;;;;;5028587;28;20053;-92
2024/01/12 04:02:38;;;;;;;20.17;18.23;;;1.40;99.90;;;;;;5040317;28;20099;-91
2024/01/12 04:05:04;;;;;;;19.65;17.70;;;1.30;99.90;;;;;;5025717;28;20669;-91
2024/01/12 04:07:31;;;;;;;19.65;17.33;;;1.40;99.90;;;;;;5041409;28;20052;-91
2024/01/12 04:09:57;;;;;;;20.30;18.13;;;1.40;99.90;;;;;;5035618;28;20107;-91
2024/01/12 04:12:22;;;;;;;21.42;17.83;;;1.40;99.90;;;;;;5016035;28;20553;-92
2024/01/12 04:14:48;;;;;;;19.23;17.20;;;1.40;99.90;;;;;;5048464;28;20542;-91
2024/01/12 04:17:14;;;;;;;19.48;17.65;;;1.50;99.90;;;;;;5044888;28;20045;-92
2024/01/12 04:19:39;;;;;;;19.92;17.70;;;1.50;99.90;;;;;;5017338;28;20065;-92
2024/01/12 04:22:05;;;;;;;21.98;17.23;;;1.50;99.90;;;;;;5038187;28;20033;-92
2024/01/12 04:24:31;;;;;;;19.58;17.55;;;1.50;99.90;;;;;;5046542;28;20044;-92
2024/01/12 04:26:57;;;;;;;19.20;17.27;;;1.50;99.90;;;;;;5035107;28;20033;-92
2024/01/12 04:29:23;;;;;;;21.25;18.20;;;1.60;99.90;;;;;;5035038;28;20502;-92
2024/01/12 04:31:48;;;;;;;19.20;17.20;;;1.50;99.90;;;;;;5047847;28;20516;-91
2024/01/12 04:34:15;;;;;;;21.02;18.58;;;1.60;99.90;;;;;;5028607;28;20045;-92
2024/01/12 04:36:41;;;;;;;21.35;18.10;;;1.60;99.90;;;;;;5016960;28;20186;-92
2024/01/12 04:39:07;;;;;;;25.50;18.77;;;1.60;99.90;;;;;;5043250;28;20604;-92
2024/01/12 04:41:32;;;;;;;22.77;17.45;;;1.60;99.90;;;;;;5023891;28;20041;-91
2024/01/12 04:43:58;;;;;;;21.63;19.38;;;1.70;99.90;;;;;;5049003;28;20033;-91
2024/01/12 04:46:24;;;;;;;20.83;18.42;;;1.70;99.90;;;;;;5029790;28;20048;-92
2024/01/12 04:48:50;;;;;;;21.23;19.10;;;1.70;99.90;;;;;;5043051;28;20104;-91
2024/01/12 04:51:15;;;;;;;19.73;17.70;;;1.60;99.90;;;;;;5028456;28;20045;-91
2024/01/12 04:53:41;;;;;;;19.98;18.08;;;1.70;99.90;;;;;;5031629;28;20068;-91
2024/01/12 04:56:07;;;;;;;19.20;17.20;;;1.60;99.90;;;;;;5028950;28;20049;-91
2024/01/12 04:58:32;;;;;;;20.50;18.13;;;1.60;99.90;;;;;;5023399;28;20529;-90
2024/01/12 05:00:58;;;;;;;20.42;16.48;;;1.60;99.90;;;;;;5044975;28;20041;-91
2024/01/12 05:03:24;;;;;;;20.38;18.40;;;1.60;99.90;;;;;;5039366;28;20108;-91
2024/01/12 05:05:49;;;;;;;19.15;17.38;;;1.60;99.90;;;;;;5027148;28;20409;-91
2024/01/12 05:08:15;;;;;;;18.70;16.70;;;1.60;99.90;;;;;;5045483;28;20127;-91
2024/01/12 05:10:41;;;;;;;18.95;17.08;;;1.50;99.90;;;;;;5019909;28;20045;-91
2024/01/12 05:13:07;;;;;;;20.23;17.17;;;1.60;99.90;;;;;;5018723;28;20124;-91
2024/01/12 05:15:32;;;;;;;18.73;16.80;;;1.50;99.90;;;;;;5019869;28;20561;-91
2024/01/12 05:17:58;;;;;;;19.77;17.45;;;1.50;99.90;;;;;;5041313;28;20025;-91
2024/01/12 05:20:25;;;;;;;22.30;18.00;;;1.50;99.90;;;;;;5047292;28;20036;-91
2024/01/12 05:22:50;;;;;;;20.77;18.30;;;1.60;99.90;;;;;;5022731;28;20045;-92
2024/01/12 05:25:16;;;;;;;21.55;17.80;;;1.50;99.90;;;;;;5034984;28;20128;-92
2024/01/12 05:27:42;;;;;;;20.55;17.95;;;1.50;99.90;;;;;;5021055;28;20519;-92
2024/01/12 05:30:08;;;;;;;19.98;17.90;;;1.60;99.90;;;;;;5018808;28;20049;-91
2024/01/12 05:32:33;;;;;;;21.83;17.10;;;1.60;99.90;;;;;;5013827;28;20046;-91
2024/01/12 05:34:59;;;;;;;19.73;17.65;;;1.60;99.90;;;;;;5044986;28;20052;-92
2024/01/12 05:37:25;;;;;;;21.38;18.27;;;1.70;99.90;;;;;;5031114;28;20037;-91
2024/01/12 05:39:50;;;;;;;19.60;17.58;;;1.70;99.90;;;;;;5021602;28;20049;-92
2024/01/12 05:42:16;;;;;;;20.45;18.45;;;1.70;99.90;;;;;;5042631;28;20044;-91
2024/01/12 05:44:42;;;;;;;21.40;18.45;;;1.70;99.90;;;;;;5027529;28;20566;-91
2024/01/12 05:47:07;;;;;;;19.88;17.75;;;1.70;99.90;;;;;;5024847;28;20049;-91
2024/01/12 05:49:35;;;;;;;18.77;16.77;;;1.80;99.90;;;;;;5048543;28;20044;-92
2024/01/12 05:52:00;;;;;;;21.00;16.60;;;1.80;99.90;;;;;;5046443;28;20047;-91
2024/01/12 05:54:26;;;;;;;23.35;18.70;;;1.80;99.90;;;;;;5041280;28;20109;-91
2024/01/12 05:56:52;;;;;;;23.27;19.27;;;1.90;99.90;;;;;;5021777;28;20137;-91
2024/01/12 05:59:18;;;;;;;25.08;19.85;;;1.90;99.90;;;;;;5042644;28;20160;-91
2024/01/12 06:01:43;;;;;;;25.55;19.90;;;2.00;99.90;;;;;;5043826;28;20041;-91
2024/01/12 06:04:09;;;;;;;24.23;19.67;;;2.10;99.90;;;;;;5048176;28;20037;-91
2024/01/12 06:06:35;;;;;;;26.27;20.98;;;2.10;99.90;;;;;;5018309;28;20179;-91
2024/01/12 06:09:01;;;;;;;24.45;19.58;;;2.20;99.90;;;;;;5050047;28;20045;-90
2024/01/12 06:11:27;;;;;;;25.75;20.00;;;2.20;99.90;;;;;;5029963;28;20041;-91
2024/01/12 06:13:52;;;;;;;24.70;19.80;;;2.30;99.90;;;;;;5044926;28;20639;-91
2024/01/12 06:16:18;;;;;;;23.35;19.52;;;2.30;99.90;;;;;;5043207;28;20036;-91
2024/01/12 06:18:44;;;;;;;21.20;18.85;;;2.30;99.90;;;;;;5024946;28;20163;-91
2024/01/12 06:21:09;;;;;;;30.23;19.50;;;2.40;99.90;;;;;;5018840;28;20086;-91
2024/01/12 06:23:35;;;;;;;23.35;19.33;;;2.40;99.90;;;;;;5035183;28;20034;-91
2024/01/12 06:26:01;;;;;;;25.70;19.77;;;2.40;99.90;;;;;;5030041;28;20045;-90
2024/01/12 06:28:27;;;;;;;26.55;20.85;;;2.50;99.90;;;;;;5022710;28;20037;-91
2024/01/12 06:30:53;;;;;;;29.40;18.65;;;2.40;99.90;;;;;;5048253;28;20120;-91
2024/01/12 06:33:19;;;;;;;26.23;19.45;;;2.50;99.90;;;;;;5031484;28;20049;-91
2024/01/12 06:35:45;;;;;;;24.27;19.38;;;2.50;99.90;;;;;;5046983;28;20064;-91
2024/01/12 06:38:10;;;;;;;23.17;19.13;;;2.60;99.90;;;;;;5038092;28;20485;-91
2024/01/12 06:40:38;;;;;;;23.35;19.00;;;2.60;99.90;;;;;;5033872;28;20077;-91
2024/01/12 06:43:04;;;;;;;26.08;18.45;;;2.70;99.90;;;;;;5044586;28;20048;-90
2024/01/12 06:45:30;;;;;;;27.05;21.25;;;2.70;99.90;;;;;;5027163;28;20048;-90
2024/01/12 06:47:55;;;;;;;33.20;19.98;;;2.70;99.90;;;;;;5043477;28;20525;-90
2024/01/12 06:50:21;;;;;;;22.77;20.48;;;2.80;99.90;;;;;;5041640;28;20515;-91
2024/01/12 06:52:47;;;;;;;26.60;19.13;;;2.90;99.90;;;;;;5028402;28;20500;-91
2024/01/12 06:55:12;;;;;;;22.30;18.85;;;2.90;99.90;;;;;;5031627;28;20147;-90
2024/01/12 06:57:38;;;;;;;28.13;18.33;;;2.90;99.90;;;;;;5038970;28;20095;-90
2024/01/12 07:00:06;;;;;;;28.45;18.63;;;2.90;99.90;;;;;;5028556;28;20107;-90
2024/01/12 07:02:33;;;;;;;23.88;17.17;;;2.90;99.90;;;;;;5043486;28;20037;-90
2024/01/12 07:04:59;;;;;;;26.63;18.70;;;2.90;99.90;;;;;;5022178;28;20041;-90
2024/01/12 07:07:25;;;;;;;28.80;17.23;;;2.90;99.90;;;;;;5029231;28;20412;-90
2024/01/12 07:09:51;;;;;;;24.10;18.48;;;2.90;99.90;;;;;;5046147;28;20052;-90
2024/01/12 07:12:16;;;;;;;21.67;16.15;;;2.90;99.90;;;;;;5045263;28;20068;-90
2024/01/12 07:14:42;;;;;;;20.65;15.95;;;3.00;99.90;;;;;;5021800;28;20081;-91
2024/01/12 07:17:08;;;;;;;22.73;16.42;;;3.00;99.90;;;;;;5030958;28;20052;-90
2024/01/12 07:19:33;;;;;;;24.70;14.70;;;3.10;99.90;;;;;;5034628;28;20029;-90
2024/01/12 07:21:59;;;;;;;21.50;15.75;;;3.10;99.90;;;;;;5031229;28;20127;-91
2024/01/12 07:24:25;;;;;;;24.63;14.57;;;3.20;99.90;;;;;;5026840;28;20037;-90
2024/01/12 07:26:50;;;;;;;23.65;15.70;;;3.20;99.90;;;;;;5048724;28;20151;-89
2024/01/12 07:29:16;;;;;;;22.52;14.60;;;3.30;99.90;;;;;;5050679;28;20141;-90
2024/01/12 07:31:42;;;;;;;23.52;14.98;;;3.30;99.90;;;;;;5016836;28;20045;-89
2024/01/12 07:34:08;;;;;;;20.33;13.90;;;3.30;99.90;;;;;;5031813;28;20037;-90
2024/01/12 07:36:34;;;;;;;22.95;14.80;;;3.40;99.90;;;;;;5045610;28;20029;-90
2024/01/12 07:38:59;;;;;;;21.67;15.45;;;3.40;99.90;;;;;;5024191;28;20052;-91
2024/01/12 07:41:26;;;;;;;19.77;14.88;;;3.40;99.90;;;;;;5031860;28;20123;-90
2024/01/12 07:43:53;;;;;;;24.88;14.60;;;3.50;99.90;;;;;;5047927;28;20116;-89
2024/01/12 07:46:19;;;;;;;17.98;13.85;;;3.50;99.90;;;;;;5045007;28;20033;-90
2024/01/12 07:48:50;;;;;;;21.23;14.60;;;3.50;99.90;;;;;;5030662;28;20043;-89
2024/01/12 07:51:16;;;;;;;20.17;13.18;;;3.50;99.90;;;;;;5024740;28;20054;-91
2024/01/12 07:53:42;;;;;;;20.73;13.35;;;3.60;99.90;;;;;;5031149;28;20040;-91
2024/01/12 07:56:09;;;;;;;22.60;13.93;;;3.60;99.90;;;;;;5043026;28;20386;-90
2024/01/12 07:58:35;;;;;;;24.27;14.52;;;3.60;99.90;;;;;;5047531;28;20056;-90
2024/01/12 08:01:01;;;;;;;20.80;13.30;;;3.70;99.90;;;;;;5031610;28;20401;-90
2024/01/12 08:03:26;;;;;;;19.98;13.25;;;3.80;99.90;;;;;;5023365;28;20041;-90
2024/01/12 08:05:52;;;;;;;20.60;14.10;;;3.80;99.90;;;;;;5038587;28;20048;-91
2024/01/12 08:08:19;;;;;;;21.77;13.98;;;3.90;99.90;;;;;;5049408;28;20119;-90
2024/01/12 08:10:46;;;;;;;24.73;15.02;;;3.90;99.90;;;;;;5045481;28;20041;-90
2024/01/12 08:13:12;;;;;;;15.30;13.43;;;4.00;99.90;;;;;;5032033;28;20102;-90
2024/01/12 08:15:38;;;;;;;21.67;13.60;;;4.00;99.90;;;;;;5049323;28;20046;-90
2024/01/12 08:18:04;;;;;;;23.92;13.90;;;4.00;99.90;;;;;;5049755;28;20143;-90
2024/01/12 08:20:29;;;;;;;19.77;12.82;;;4.00;99.90;;;;;;5031106;28;20417;-90
2024/01/12 08:22:55;;;;;;;17.35;13.55;;;4.00;99.90;;;;;;5031638;28;20051;-89
2024/01/12 08:25:23;;;;;;;23.00;13.25;;;4.00;99.90;;;;;;5047467;28;20059;-90
2024/01/12 08:27:49;;;;;;;22.63;13.23;;;4.00;99.90;;;;;;5039258;28;20052;-90
2024/01/12 08:30:15;;;;;;;21.92;13.02;;;4.00;99.90;;;;;;5043226;28;20886;-90
2024/01/12 08:32:40;;;;;;;17.65;11.85;;;4.00;99.90;;;;;;5033933;28;20047;-89
2024/01/12 08:35:06;;;;;;;16.50;12.20;;;4.00;99.90;;;;;;5029134;28;20041;-90
2024/01/12 08:37:32;;;;;;;20.20;12.13;;;4.00;99.90;;;;;;5042135;28;20037;-90
2024/01/12 08:39:58;;;;;;;19.05;12.15;;;4.00;99.90;;;;;;5019519;28;20057;-89
2024/01/12 08:42:24;;;;;;;18.67;12.07;;;4.00;99.90;;;;;;5038689;28;20040;-90
2024/01/12 08:44:50;;;;;;;20.20;11.75;;;4.10;99.90;;;;;;5041822;28;20079;-89
2024/01/12 08:47:15;;;;;;;20.92;12.05;;;4.10;99.90;;;;;;5027706;28;20062;-90
2024/01/12 08:49:41;;;;;;;20.67;12.10;;;4.20;99.90;;;;;;5039748;28;20500;-89
2024/01/12 08:52:07;;;;;;;23.80;12.48;;;4.20;99.90;;;;;;5019618;28;20469;-90
2024/01/12 08:54:32;;;;;;;22.00;12.50;;;4.30;99.90;;;;;;5037159;28;20086;-89
2024/01/12 08:56:58;;;;;;;19.58;12.43;;;4.30;99.90;;;;;;5037672;28;20049;-90
2024/01/12 08:59:25;;;;;;;23.20;13.07;;;4.30;99.90;;;;;;5034207;28;20045;-90
2024/01/12 09:01:51;;;;;;;15.80;11.73;;;4.40;99.90;;;;;;5033210;28;20458;-89
2024/01/12 09:04:17;;;;;;;19.20;12.13;;;4.40;99.90;;;;;;5027761;28;20075;-89
2024/01/12 09:06:42;;;;;;;20.10;12.27;;;4.40;99.90;;;;;;5044058;28;20037;-89
2024/01/12 09:09:08;;;;;;;17.08;11.55;;;4.50;99.90;;;;;;5023847;28;20033;-89
2024/01/12 09:11:34;;;;;;;23.13;11.65;;;4.50;99.90;;;;;;5023635;28;20486;-89
2024/01/12 09:14:00;;;;;;;16.10;10.65;;;4.50;99.90;;;;;;5023103;28;20056;-89
2024/01/12 09:16:25;;;;;;;16.80;10.88;;;4.50;99.90;;;;;;5036219;28;20114;-90
2024/01/12 09:18:51;;;;;;;20.42;11.48;;;4.50;99.90;;;;;;5022096;28;20037;-90
2024/01/12 09:21:16;;;;;;;18.83;11.13;;;4.50;99.90;;;;;;5027359;28;20095;-89
2024/01/12 09:23:43;;;;;;;17.52;12.60;;;4.60;99.90;;;;;;5049752;28;20485;-92
2024/01/12 09:26:11;;;;;;;19.85;12.48;;;4.80;99.90;;;;;;5026163;28;20602;-90
2024/01/12 09:28:37;;;;;;;17.38;11.63;;;4.80;99.90;;;;;;5027732;28;20055;-90
2024/01/12 09:31:03;;;;;;;18.65;12.95;;;4.80;99.90;;;;;;5023311;28;20493;-90
2024/01/12 09:33:29;;;;;;;19.52;12.57;;;4.90;99.90;;;;;;5038327;28;20045;-90
2024/01/12 09:35:55;;;;;;;19.70;12.63;;;4.90;99.90;;;;;;5048889;28;20448;-90
2024/01/12 09:38:21;;;;;;;19.45;12.23;;;4.90;99.90;;;;;;5028485;28;20428;-88
2024/01/12 09:40:47;;;;;;;13.40;10.82;;;5.00;99.90;;;;;;5048935;28;20040;-91
2024/01/12 09:43:14;;;;;;;17.58;11.35;;;5.00;99.90;;;;;;5051383;28;20036;-88
2024/01/12 09:45:45;;;;;;;16.45;11.30;;;5.00;99.90;;;;;;5034245;28;20123;-89
2024/01/12 09:48:12;;;;;;;18.50;10.77;;;5.00;99.90;;;;;;5034546;28;20040;-89
2024/01/12 09:50:39;;;;;;;13.63;10.90;;;5.10;99.90;;;;;;5049245;28;20123;-88
2024/01/12 09:53:05;;;;;;;13.43;10.30;;;5.10;99.90;;;;;;5044540;28;20046;-88
2024/01/12 09:55:31;;;;;;;18.05;10.73;;;5.10;99.90;;;;;;5069331;28;20041;-89
2024/01/12 09:57:57;;;;;;;18.73;10.45;;;5.20;99.90;;;;;;5067719;28;20386;-89
2024/01/12 10:00:26;;;;;;;15.18;10.80;;;5.20;99.90;;;;;;5026479;28;20785;-88
2024/01/12 10:02:52;;;;;;;14.63;11.75;;;5.20;99.90;;;;;;5043835;28;20049;-89
2024/01/12 10:05:18;;;;;;;12.90;10.60;;;5.20;99.90;;;;;;5048880;28;20151;-88
2024/01/12 10:07:44;;;;;;;16.85;12.50;;;5.20;99.90;;;;;;5045605;28;20138;-88
2024/01/12 10:10:11;;;;;;;14.05;11.73;;;5.20;99.90;;;;;;5034605;28;20042;-88
2024/01/12 10:12:36;;;;;;;15.05;11.05;;;5.10;99.90;;;;;;5030229;28;20477;-88
2024/01/12 10:15:08;;;;;;;17.02;12.13;;;5.10;99.90;;;;;;5035226;28;20094;-87
2024/01/12 10:17:34;;;;;;;15.75;11.80;;;5.10;99.90;;;;;;5049210;28;20564;-88
2024/01/12 10:20:00;;;;;;;20.38;11.80;;;5.10;99.90;;;;;;5070379;28;20045;-88
2024/01/12 10:22:26;;;;;;;15.63;12.00;;;5.00;99.90;;;;;;5033892;28;20045;-87
2024/01/12 10:24:59;;;;;;;16.35;11.65;;;5.00;99.90;;;;;;5048124;28;20044;-88
2024/01/12 10:27:26;;;;;;;15.90;10.98;;;5.00;99.90;;;;;;5051357;28;20036;-87
2024/01/12 10:29:52;;;;;;;19.17;12.13;;;5.00;99.90;;;;;;5032069;28;20044;-87
2024/01/12 10:32:21;;;;;;;20.38;12.15;;;5.00;99.90;;;;;;5052797;28;20476;-87
2024/01/12 10:34:47;;;;;;;20.05;12.27;;;5.00;99.90;;;;;;5035101;28;20071;-87
2024/01/12 10:37:17;;;;;;;16.73;11.65;;;5.00;99.90;;;;;;5034868;28;20036;-88
2024/01/12 10:39:50;;;;;;;21.48;12.23;;;5.00;99.90;;;;;;5019820;28;20053;-87
2024/01/12 10:42:17;;;;;;;23.92;12.05;;;5.10;99.90;;;;;;5029274;28;20120;-88
2024/01/12 10:44:47;;;;;;;22.70;11.93;;;5.10;99.90;;;;;;5038068;28;20044;-87
2024/01/12 10:47:18;;;;;;;19.50;12.25;;;5.10;99.90;;;;;;5035135;28;20037;-87
2024/01/12 10:49:49;;;;;;;16.83;11.88;;;5.10;99.90;;;;;;5026174;28;20055;-86
2024/01/12 10:52:57;;;;;;;15.00;11.27;;;5.20;99.90;;;;;;5037972;28;20041;-86
2024/01/12 10:55:26;;;;;;;16.63;11.27;;;5.20;99.90;;;;;;5038902;28;20516;-87
2024/01/12 10:57:53;;;;;;;19.67;11.65;;;5.20;99.90;;;;;;5044345;28;20417;-87
2024/01/12 11:00:20;;;;;;;17.00;12.70;;;5.20;99.90;;;;;;5019919;28;20041;-87
2024/01/12 11:02:48;;;;;;;21.80;13.52;;;5.30;99.90;;;;;;5037476;28;20099;-86
2024/01/12 11:05:15;;;;;;;20.38;13.25;;;5.30;99.90;;;;;;5038957;28;20045;-87
2024/01/12 11:07:43;;;;;;;18.85;11.52;;;5.40;99.90;;;;;;5020480;28;20048;-87
2024/01/12 11:10:09;;;;;;;18.83;12.45;;;5.40;99.90;;;;;;5045548;28;20079;-85
2024/01/12 11:12:36;;;;;;;22.88;12.00;;;5.40;99.90;;;;;;5019995;28;20124;-87
2024/01/12 11:15:04;;;;;;;22.35;14.07;;;5.30;99.90;;;;;;5047896;28;20076;-86
2024/01/12 11:17:32;;;;;;;18.10;11.75;;;5.40;99.90;;;;;;5013612;28;20059;-87
2024/01/12 11:20:11;;;;;;;25.08;12.68;;;5.30;99.90;;;;;;5034899;28;20038;-86
2024/01/12 11:22:41;;;;;;;18.35;11.75;;;5.30;99.90;;;;;;5046917;28;20048;-86
2024/01/12 11:25:09;;;;;;;23.92;11.88;;;5.40;99.90;;;;;;5043100;28;20082;-87
2024/01/12 11:27:37;;;;;;;24.25;12.07;;;5.40;99.90;;;;;;5015994;28;20049;-86
2024/01/12 11:30:04;;;;;;;19.48;11.73;;;5.40;99.90;;;;;;5020031;28;20099;-86
2024/01/12 11:32:30;;;;;;;22.83;13.85;;;5.40;99.90;;;;;;5025973;28;20508;-85
2024/01/12 11:35:22;;;;;;;21.50;12.02;;;5.40;99.90;;;;;;5043061;28;20083;-86
2024/01/12 11:38:05;;;;;;;16.00;10.75;;;5.50;99.90;;;;;;5019132;28;20073;-86
2024/01/12 11:40:30;;;;;;;19.60;11.82;;;5.50;99.90;;;;;;5045597;28;20053;-85
2024/01/12 11:42:58;;;;;;;16.55;11.15;;;5.50;99.90;;;;;;5061385;28;20033;-86
2024/01/12 11:45:25;;;;;;;21.27;11.40;;;5.60;99.90;;;;;;5030981;28;20028;-85
2024/01/12 11:47:50;;;;;;;17.45;11.43;;;5.60;99.90;;;;;;5030692;28;20048;-85
2024/01/12 11:50:16;;;;;;;18.05;11.18;;;5.70;99.90;;;;;;5034045;28;20056;-85
2024/01/12 11:52:42;;;;;;;17.85;11.77;;;5.70;99.90;;;;;;5029902;28;20048;-86
2024/01/12 11:55:10;;;;;;;17.80;11.25;;;5.70;99.90;;;;;;5050933;28;20075;-86
2024/01/12 11:57:39;;;;;;;18.13;11.93;;;5.70;99.90;;;;;;5046495;28;20080;-85
2024/01/12 12:00:06;;;;;;;18.05;11.55;;;5.70;99.90;;;;;;5043088;28;20067;-86
2024/01/12 12:02:32;;;;;;;23.05;12.30;;;5.70;99.90;;;;;;5026644;28;20583;-85
2024/01/12 12:04:57;;;;;;;23.33;11.82;;;5.80;99.90;;;;;;5023658;28;20036;-85
2024/01/12 12:07:27;;;;;;;17.42;11.75;;;5.70;99.90;;;;;;5028790;28;20040;-86
2024/01/12 12:09:53;;;;;;;15.15;11.18;;;5.70;99.90;;;;;;5041047;28;20040;-85
2024/01/12 12:12:20;;;;;;;21.65;12.25;;;5.70;99.90;;;;;;5044775;28;20127;-85
2024/01/12 12:15:08;;;;;;;21.30;13.45;;;5.80;99.90;;;;;;5030481;28;20478;-85
2024/01/12 12:17:40;;;;;;;21.23;12.02;;;5.80;99.90;;;;;;5060493;28;20041;-85
2024/01/12 12:20:11;;;;;;;19.88;11.27;;;5.80;99.90;;;;;;5038109;28;20409;-85
2024/01/12 12:22:41;;;;;;;27.58;13.13;;;5.80;99.90;;;;;;5026768;28;20392;-85
2024/01/12 12:25:10;;;;;;;19.92;11.45;;;5.80;99.90;;;;;;5059172;28;20032;-85
2024/01/12 12:27:38;;;;;;;16.77;12.40;;;5.80;99.90;;;;;;5059770;28;20052;-85